sensor_id;sensor_type;location;lat;lon;timestamp;pressure;altitude;pressure_sealevel;temperature;humidity
75188;BME280;63762;51.334;22.108;2023-07-13T00:03:05;101297.64;;;20.89;75.27
75188;BME280;63762;51.334;22.108;2023-07-13T00:13:12;101292.34;;;20.79;75.40
75188;BME280;63762;51.334;22.108;2023-07-13T00:23:19;101285.00;;;20.72;75.48
75188;BME280;63762;51.334;22.108;2023-07-13T00:33:28;101284.86;;;20.65;75.27
75188;BME280;63762;51.334;22.108;2023-07-13T00:43:34;101270.16;;;20.50;76.12
75188;BME280;63762;51.334;22.108;2023-07-13T00:53:41;101272.59;;;20.45;76.36
75188;BME280;63762;51.334;22.108;2023-07-13T01:03:51;101292.38;;;20.47;75.97
75188;BME280;63762;51.334;22.108;2023-07-13T01:13:55;101292.91;;;20.35;75.94
75188;BME280;63762;51.334;22.108;2023-07-13T01:24:02;101286.23;;;20.37;76.04
75188;BME280;63762;51.334;22.108;2023-07-13T01:34:09;101300.60;;;20.39;75.61
75188;BME280;63762;51.334;22.108;2023-07-13T01:44:16;101305.71;;;20.34;75.57
75188;BME280;63762;51.334;22.108;2023-07-13T01:54:23;101317.68;;;20.33;75.42
75188;BME280;63762;51.334;22.108;2023-07-13T02:04:31;101315.96;;;20.24;75.59
75188;BME280;63762;51.334;22.108;2023-07-13T02:14:38;101313.56;;;20.21;75.89
75188;BME280;63762;51.334;22.108;2023-07-13T02:24:45;101325.16;;;20.15;76.29
75188;BME280;63762;51.334;22.108;2023-07-13T02:34:52;101333.70;;;20.12;76.11
75188;BME280;63762;51.334;22.108;2023-07-13T02:44:59;101353.13;;;20.09;75.97
75188;BME280;63762;51.334;22.108;2023-07-13T02:55:06;101360.99;;;20.04;76.33
75188;BME280;63762;51.334;22.108;2023-07-13T03:15:23;101369.68;;;20.00;76.62
75188;BME280;63762;51.334;22.108;2023-07-13T03:25:28;101369.88;;;20.06;77.05
75188;BME280;63762;51.334;22.108;2023-07-13T03:35:35;101369.42;;;20.19;77.59
75188;BME280;63762;51.334;22.108;2023-07-13T03:45:42;101351.85;;;20.29;77.52
75188;BME280;63762;51.334;22.108;2023-07-13T03:55:49;101374.05;;;20.34;77.66
75188;BME280;63762;51.334;22.108;2023-07-13T04:05:56;101373.90;;;20.44;77.77
75188;BME280;63762;51.334;22.108;2023-07-13T04:16:04;101364.48;;;20.54;78.12
75188;BME280;63762;51.334;22.108;2023-07-13T04:26:10;101390.47;;;20.66;77.97
75188;BME280;63762;51.334;22.108;2023-07-13T04:36:17;101391.34;;;20.83;77.51
75188;BME280;63762;51.334;22.108;2023-07-13T04:46:24;101408.61;;;20.99;76.86
75188;BME280;63762;51.334;22.108;2023-07-13T04:56:31;101415.10;;;21.14;77.21
75188;BME280;63762;51.334;22.108;2023-07-13T05:06:39;101410.66;;;21.13;77.23
75188;BME280;63762;51.334;22.108;2023-07-13T05:16:46;101410.66;;;21.13;77.18
75188;BME280;63762;51.334;22.108;2023-07-13T05:26:53;101418.16;;;21.35;77.36
75188;BME280;63762;51.334;22.108;2023-07-13T05:37:00;101440.34;;;21.56;76.38
75188;BME280;63762;51.334;22.108;2023-07-13T05:47:07;101438.23;;;21.82;75.56
75188;BME280;63762;51.334;22.108;2023-07-13T05:57:14;101443.44;;;22.08;75.05
75188;BME280;63762;51.334;22.108;2023-07-13T06:07:21;101425.32;;;22.30;75.12
75188;BME280;63762;51.334;22.108;2023-07-13T06:17:29;101426.41;;;22.51;74.41
75188;BME280;63762;51.334;22.108;2023-07-13T06:27:36;101420.86;;;22.82;74.04
75188;BME280;63762;51.334;22.108;2023-07-13T06:37:43;101406.35;;;23.10;73.95
75188;BME280;63762;51.334;22.108;2023-07-13T06:47:50;101404.62;;;23.32;73.05
75188;BME280;63762;51.334;22.108;2023-07-13T06:57:57;101416.30;;;23.48;71.26
75188;BME280;63762;51.334;22.108;2023-07-13T07:08:04;101413.16;;;23.66;70.88
75188;BME280;63762;51.334;22.108;2023-07-13T07:18:12;101417.98;;;23.78;69.30
75188;BME280;63762;51.334;22.108;2023-07-13T07:28:18;101427.09;;;23.79;69.65
75188;BME280;63762;51.334;22.108;2023-07-13T07:38:25;101421.51;;;23.87;68.46
75188;BME280;63762;51.334;22.108;2023-07-13T07:48:32;101442.64;;;23.86;68.13
75188;BME280;63762;51.334;22.108;2023-07-13T07:58:40;101470.02;;;23.80;69.15
75188;BME280;63762;51.334;22.108;2023-07-13T08:08:47;101492.18;;;23.64;69.34
75188;BME280;63762;51.334;22.108;2023-07-13T08:18:54;101455.07;;;23.68;69.77
75188;BME280;63762;51.334;22.108;2023-07-13T08:29:01;101465.95;;;23.61;69.77
75188;BME280;63762;51.334;22.108;2023-07-13T08:39:08;101463.67;;;23.50;70.40
75188;BME280;63762;51.334;22.108;2023-07-13T08:49:18;101461.56;;;23.52;70.42
75188;BME280;63762;51.334;22.108;2023-07-13T08:59:26;101459.87;;;23.51;70.82
75188;BME280;63762;51.334;22.108;2023-07-13T09:19:44;101433.63;;;23.49;71.62
75188;BME280;63762;51.334;22.108;2023-07-13T09:29:51;101433.46;;;23.65;71.14
75188;BME280;63762;51.334;22.108;2023-07-13T09:39:55;101444.07;;;23.68;70.37
75188;BME280;63762;51.334;22.108;2023-07-13T09:50:04;101429.66;;;23.66;71.10
75188;BME280;63762;51.334;22.108;2023-07-13T10:00:18;101430.04;;;23.77;71.82
75188;BME280;63762;51.334;22.108;2023-07-13T10:10:21;101412.78;;;23.83;71.50
75188;BME280;63762;51.334;22.108;2023-07-13T10:20:24;101412.21;;;23.88;71.67
75188;BME280;63762;51.334;22.108;2023-07-13T10:30:34;101397.35;;;23.97;71.27
75188;BME280;63762;51.334;22.108;2023-07-13T10:40:43;101387.93;;;24.06;71.38
75188;BME280;63762;51.334;22.108;2023-07-13T10:50:49;101393.63;;;24.40;71.48
75188;BME280;63762;51.334;22.108;2023-07-13T11:21:21;101395.87;;;24.93;69.18
75188;BME280;63762;51.334;22.108;2023-07-13T11:31:32;101383.82;;;24.94;67.96
75188;BME280;63762;51.334;22.108;2023-07-13T11:51:46;101356.08;;;25.23;67.67
75188;BME280;63762;51.334;22.108;2023-07-13T12:01:57;101339.77;;;25.28;66.96
75188;BME280;63762;51.334;22.108;2023-07-13T12:11:58;101356.02;;;25.44;66.58
75188;BME280;63762;51.334;22.108;2023-07-13T12:22:02;101363.47;;;25.50;65.71
75188;BME280;63762;51.334;22.108;2023-07-13T12:32:08;101357.76;;;25.52;66.22
75188;BME280;63762;51.334;22.108;2023-07-13T12:52:31;101373.62;;;25.43;65.50
75188;BME280;63762;51.334;22.108;2023-07-13T13:02:36;101364.29;;;25.44;64.73
75188;BME280;63762;51.334;22.108;2023-07-13T13:12:37;101365.61;;;25.21;63.54
75188;BME280;63762;51.334;22.108;2023-07-13T13:22:39;101362.42;;;24.96;65.24
75188;BME280;63762;51.334;22.108;2023-07-13T13:32:41;101364.67;;;24.86;66.82
75188;BME280;63762;51.334;22.108;2023-07-13T13:42:43;101380.68;;;24.76;68.14
75188;BME280;63762;51.334;22.108;2023-07-13T13:52:49;101398.38;;;24.67;69.19
75188;BME280;63762;51.334;22.108;2023-07-13T14:02:56;101418.42;;;24.61;71.04
75188;BME280;63762;51.334;22.108;2023-07-13T14:16:17;101431.95;;;24.42;72.13
75188;BME280;63762;51.334;22.108;2023-07-13T14:26:26;101501.25;;;24.16;70.35
75188;BME280;63762;51.334;22.108;2023-07-13T14:36:35;101546.05;;;22.06;67.23
75188;BME280;63762;51.334;22.108;2023-07-13T14:46:37;101578.03;;;20.85;72.96
75188;BME280;63762;51.334;22.108;2023-07-13T14:56:41;101592.09;;;19.89;76.20
75188;BME280;63762;51.334;22.108;2023-07-13T15:06:56;101606.95;;;19.43;79.35
75188;BME280;63762;51.334;22.108;2023-07-13T15:16:58;101606.48;;;19.48;79.53
75188;BME280;63762;51.334;22.108;2023-07-13T15:27:02;101595.71;;;19.46;79.30
75188;BME280;63762;51.334;22.108;2023-07-13T15:37:15;101592.69;;;19.32;80.16
75188;BME280;63762;51.334;22.108;2023-07-13T15:47:16;101591.26;;;19.28;80.35
75188;BME280;63762;51.334;22.108;2023-07-13T15:57:23;101581.65;;;19.24;80.08
75188;BME280;63762;51.334;22.108;2023-07-13T16:07:30;101584.84;;;19.02;81.22
75188;BME280;63762;51.334;22.108;2023-07-13T16:17:39;101574.02;;;19.10;80.86
75188;BME280;63762;51.334;22.108;2023-07-13T16:27:48;101563.97;;;19.28;80.11
75188;BME280;63762;51.334;22.108;2023-07-13T16:37:52;101545.98;;;19.35;79.99
75188;BME280;63762;51.334;22.108;2023-07-13T16:48:05;101507.17;;;19.49;79.59
75188;BME280;63762;51.334;22.108;2023-07-13T16:58:10;101497.00;;;19.59;79.22
75188;BME280;63762;51.334;22.108;2023-07-13T17:08:22;101490.29;;;19.79;78.82
75188;BME280;63762;51.334;22.108;2023-07-13T17:18:30;101517.93;;;19.76;78.79
75188;BME280;63762;51.334;22.108;2023-07-13T17:38:48;101547.32;;;19.82;77.90
75188;BME280;63762;51.334;22.108;2023-07-13T17:48:56;101564.43;;;19.41;80.18
75188;BME280;63762;51.334;22.108;2023-07-13T17:58:58;101548.36;;;19.38;80.63
75188;BME280;63762;51.334;22.108;2023-07-13T18:09:00;101539.66;;;19.60;79.96
75188;BME280;63762;51.334;22.108;2023-07-13T18:19:04;101526.44;;;19.73;79.06
75188;BME280;63762;51.334;22.108;2023-07-13T18:29:10;101526.66;;;19.79;79.39
75188;BME280;63762;51.334;22.108;2023-07-13T18:39:17;101568.43;;;19.72;78.98
75188;BME280;63762;51.334;22.108;2023-07-13T18:49:24;101579.23;;;19.21;80.34
75188;BME280;63762;51.334;22.108;2023-07-13T18:59:31;101590.61;;;19.16;80.96
75188;BME280;63762;51.334;22.108;2023-07-13T19:09:39;101621.32;;;19.01;81.49
75188;BME280;63762;51.334;22.108;2023-07-13T19:19:46;101635.38;;;19.06;82.04
75188;BME280;63762;51.334;22.108;2023-07-13T19:29:53;101645.53;;;18.86;82.62
75188;BME280;63762;51.334;22.108;2023-07-13T19:40:00;101644.66;;;18.86;82.82
75188;BME280;63762;51.334;22.108;2023-07-13T19:50:10;101646.10;;;18.90;82.63
75188;BME280;63762;51.334;22.108;2023-07-13T20:00:20;101664.05;;;19.10;82.04
75188;BME280;63762;51.334;22.108;2023-07-13T20:10:28;101669.57;;;19.18;81.61
75188;BME280;63762;51.334;22.108;2023-07-13T20:20:35;101674.55;;;19.32;81.05
75188;BME280;63762;51.334;22.108;2023-07-13T20:30:42;101686.15;;;19.34;80.34
75188;BME280;63762;51.334;22.108;2023-07-13T20:40:47;101683.99;;;19.37;79.78
75188;BME280;63762;51.334;22.108;2023-07-13T20:50:56;101694.04;;;19.37;79.79
75188;BME280;63762;51.334;22.108;2023-07-13T21:00:57;101696.08;;;19.35;79.33
75188;BME280;63762;51.334;22.108;2023-07-13T21:11:04;101697.22;;;19.32;79.25
75188;BME280;63762;51.334;22.108;2023-07-13T21:21:13;101703.30;;;19.26;79.34
75188;BME280;63762;51.334;22.108;2023-07-13T21:41:33;101690.72;;;18.89;80.78
75188;BME280;63762;51.334;22.108;2023-07-13T21:51:35;101707.18;;;18.70;81.94
75188;BME280;63762;51.334;22.108;2023-07-13T22:01:40;101707.97;;;18.53;82.87
75188;BME280;63762;51.334;22.108;2023-07-13T22:11:47;101715.76;;;18.38;83.59
75188;BME280;63762;51.334;22.108;2023-07-13T22:21:54;101709.88;;;18.43;83.70
75188;BME280;63762;51.334;22.108;2023-07-13T22:32:01;101698.39;;;18.49;83.37
75188;BME280;63762;51.334;22.108;2023-07-13T22:42:09;101707.25;;;18.51;83.23
75188;BME280;63762;51.334;22.108;2023-07-13T22:52:15;101702.02;;;18.67;82.47
75188;BME280;63762;51.334;22.108;2023-07-13T23:02:22;101696.24;;;18.79;81.50
75188;BME280;63762;51.334;22.108;2023-07-13T23:12:31;101704.12;;;18.82;80.65
75188;BME280;63762;51.334;22.108;2023-07-13T23:22:37;101709.01;;;18.79;80.12
75188;BME280;63762;51.334;22.108;2023-07-13T23:32:45;101721.15;;;18.57;81.07
75188;BME280;63762;51.334;22.108;2023-07-13T23:42:51;101712.43;;;18.35;82.45
75188;BME280;63762;51.334;22.108;2023-07-13T23:52:59;101723.65;;;18.41;82.04
